createdAt,value
2018-08-04T00:00:19.094Z,0.00
2018-08-04T00:01:19.157Z,0.00
2018-08-04T00:02:19.219Z,0.00
2018-08-04T00:03:19.283Z,0.00
2018-08-04T00:04:19.345Z,0.00
2018-08-04T00:05:19.408Z,0.00
2018-08-04T00:06:19.471Z,0.00
2018-08-04T00:07:19.535Z,0.00
2018-08-04T00:08:19.597Z,0.00
2018-08-04T00:09:19.661Z,0.00
2018-08-04T00:10:19.723Z,0.00
2018-08-04T00:11:19.786Z,0.00
2018-08-04T00:12:19.850Z,0.00
2018-08-04T00:13:19.912Z,0.00
2018-08-04T00:14:19.977Z,0.00
2018-08-04T00:15:20.039Z,0.00
2018-08-04T00:16:20.102Z,0.00
2018-08-04T00:17:20.162Z,0.00
2018-08-04T00:18:20.227Z,0.00
2018-08-04T00:19:20.290Z,0.00
2018-08-04T00:20:20.354Z,0.00
2018-08-04T00:21:20.415Z,0.00
2018-08-04T00:22:20.481Z,0.00
2018-08-04T00:23:20.541Z,0.00
2018-08-04T00:24:20.605Z,0.00
2018-08-04T00:25:20.666Z,0.00
2018-08-04T00:26:20.730Z,0.00
2018-08-04T00:27:20.844Z,0.00
2018-08-04T00:28:20.856Z,0.00
2018-08-04T00:29:20.918Z,0.00
2018-08-04T00:30:20.981Z,0.00
2018-08-04T00:31:21.045Z,0.00
2018-08-04T00:32:21.107Z,0.00
2018-08-04T00:33:21.169Z,0.00
2018-08-04T00:34:21.232Z,0.00
2018-08-04T00:35:21.296Z,0.00
2018-08-04T00:36:21.358Z,0.00
2018-08-04T00:37:21.420Z,0.00
2018-08-04T00:38:21.483Z,0.00
2018-08-04T00:39:21.547Z,0.00
2018-08-04T00:40:21.613Z,0.00
2018-08-04T00:41:21.672Z,0.00
2018-08-04T00:42:21.735Z,0.00
2018-08-04T00:43:21.797Z,0.00
2018-08-04T00:44:21.861Z,0.00
2018-08-04T00:45:21.922Z,0.00
2018-08-04T00:46:21.984Z,0.00
2018-08-04T00:47:22.049Z,0.00
2018-08-04T00:48:22.112Z,0.00
2018-08-04T00:49:22.173Z,0.00
2018-08-04T00:50:22.253Z,0.00
2018-08-04T00:51:22.298Z,0.00
2018-08-04T00:52:22.360Z,0.00
2018-08-04T00:53:22.422Z,0.00
2018-08-04T00:54:22.485Z,0.00
2018-08-04T00:55:22.565Z,0.00
2018-08-04T00:56:22.611Z,0.00
2018-08-04T00:57:22.676Z,0.00
2018-08-04T00:58:22.735Z,0.00
2018-08-04T00:59:22.799Z,0.00
2018-08-04T01:00:22.862Z,0.00
2018-08-04T01:01:22.922Z,0.00
2018-08-04T01:02:22.987Z,0.00
2018-08-04T01:03:23.052Z,0.00
2018-08-04T01:04:23.110Z,0.00
2018-08-04T01:05:23.172Z,0.00
2018-08-04T01:06:23.235Z,0.00
2018-08-04T01:07:23.297Z,0.00
2018-08-04T01:08:23.361Z,0.00
2018-08-04T01:09:23.422Z,0.00
2018-08-04T01:10:23.484Z,0.00
2018-08-04T01:11:23.547Z,0.00
2018-08-04T01:12:23.610Z,0.00
2018-08-04T01:13:23.672Z,0.00
2018-08-04T01:14:23.738Z,0.00
2018-08-04T01:15:23.797Z,0.00
2018-08-04T01:16:23.861Z,0.00
2018-08-04T01:17:23.921Z,0.00
2018-08-04T01:18:23.984Z,0.00
2018-08-04T01:19:24.046Z,0.00
2018-08-04T01:20:24.109Z,0.00
2018-08-04T01:21:24.174Z,0.00
2018-08-04T01:22:24.234Z,0.00
2018-08-04T01:23:24.296Z,0.00
2018-08-04T01:24:24.360Z,0.00
2018-08-04T01:25:24.419Z,0.00
2018-08-04T01:26:24.483Z,0.00
2018-08-04T01:27:24.545Z,0.00
2018-08-04T01:28:24.607Z,0.00
2018-08-04T01:29:24.672Z,0.00
2018-08-04T01:30:24.731Z,0.00
2018-08-04T01:31:24.802Z,0.00
2018-08-04T01:32:24.858Z,0.00
2018-08-04T01:33:24.918Z,0.00
2018-08-04T01:34:24.981Z,0.00
2018-08-04T01:35:25.047Z,0.00
2018-08-04T01:36:25.107Z,0.00
2018-08-04T01:37:25.167Z,0.00
2018-08-04T01:38:25.231Z,0.00
2018-08-04T01:39:25.292Z,0.00
2018-08-04T01:40:25.357Z,0.00
2018-08-04T01:41:25.416Z,0.00
2018-08-04T01:42:25.480Z,0.00
2018-08-04T01:43:25.540Z,0.00
2018-08-04T01:44:25.604Z,0.00
2018-08-04T01:45:25.665Z,0.00
2018-08-04T01:46:25.727Z,0.00
2018-08-04T01:47:25.790Z,0.00
2018-08-04T01:48:25.853Z,0.00
2018-08-04T01:49:25.915Z,0.00
2018-08-04T01:50:25.976Z,0.00
2018-08-04T01:51:26.039Z,0.00
2018-08-04T01:52:26.100Z,0.00
2018-08-04T01:53:26.163Z,0.00
2018-08-04T01:54:26.227Z,0.00
2018-08-04T01:55:26.287Z,0.00
2018-08-04T01:56:26.349Z,0.00
2018-08-04T01:57:26.411Z,0.00
2018-08-04T01:58:26.473Z,0.00
2018-08-04T01:59:26.536Z,0.00
2018-08-04T02:00:26.597Z,0.00
2018-08-04T02:01:26.659Z,0.00
2018-08-04T02:02:26.722Z,0.00
2018-08-04T02:03:26.784Z,0.00
2018-08-04T02:04:26.846Z,0.00
2018-08-04T02:05:26.907Z,0.00
2018-08-04T02:06:26.971Z,0.00
2018-08-04T02:07:27.033Z,0.00
2018-08-04T02:08:27.100Z,0.00
2018-08-04T02:09:27.156Z,0.00
2018-08-04T02:10:27.218Z,0.00
2018-08-04T02:11:27.280Z,0.00
2018-08-04T02:12:27.342Z,0.00
2018-08-04T02:13:27.402Z,0.00
2018-08-04T02:14:27.465Z,0.00
2018-08-04T02:15:27.778Z,0.00
2018-08-04T02:16:27.591Z,0.00
2018-08-04T02:17:27.653Z,0.00
2018-08-04T02:18:27.715Z,0.00
2018-08-04T02:19:27.777Z,0.00
2018-08-04T02:20:27.838Z,0.00
2018-08-04T02:21:27.902Z,0.00
2018-08-04T02:22:27.962Z,0.00
2018-08-04T02:23:28.024Z,0.00
2018-08-04T02:24:28.095Z,0.00
2018-08-04T02:25:28.147Z,0.00
2018-08-04T02:26:28.209Z,0.00
2018-08-04T02:27:28.272Z,0.00
2018-08-04T02:28:28.335Z,0.00
2018-08-04T02:29:28.395Z,0.00
2018-08-04T02:30:28.458Z,0.00
2018-08-04T02:31:28.521Z,0.00
2018-08-04T02:32:28.581Z,0.00
2018-08-04T02:33:28.645Z,0.00
2018-08-04T02:34:28.706Z,0.00
2018-08-04T02:35:28.768Z,0.00
2018-08-04T02:36:28.830Z,0.00
2018-08-04T02:37:28.890Z,0.00
2018-08-04T02:38:28.952Z,0.00
2018-08-04T02:39:29.016Z,0.00
2018-08-04T02:40:29.077Z,0.00
2018-08-04T02:41:29.138Z,0.00
2018-08-04T02:42:29.202Z,0.00
2018-08-04T02:43:29.272Z,0.00
2018-08-04T02:44:29.323Z,0.00
2018-08-04T02:45:29.387Z,0.00
2018-08-04T02:46:29.449Z,0.00
2018-08-04T02:47:29.510Z,0.00
2018-08-04T02:48:29.571Z,0.00
2018-08-04T02:49:29.633Z,0.00
2018-08-04T02:50:29.945Z,0.00
2018-08-04T02:51:29.759Z,0.00
2018-08-04T02:52:29.824Z,0.00
2018-08-04T02:53:29.880Z,0.00
2018-08-04T02:54:29.942Z,0.00
2018-08-04T02:55:30.154Z,0.00
2018-08-04T02:56:30.066Z,0.00
2018-08-04T02:57:30.127Z,0.00
2018-08-04T02:58:30.193Z,0.00
2018-08-04T02:59:30.252Z,0.00
2018-08-04T03:00:30.313Z,0.00
2018-08-04T03:01:30.375Z,0.00
2018-08-04T03:02:30.435Z,0.00
2018-08-04T03:03:30.499Z,0.00
2018-08-04T03:04:30.561Z,0.00
2018-08-04T03:05:30.626Z,0.00
2018-08-04T03:06:30.684Z,0.00
2018-08-04T03:07:30.744Z,0.00
2018-08-04T03:08:30.852Z,0.00
2018-08-04T03:09:30.869Z,0.00
2018-08-04T03:10:30.932Z,0.00
2018-08-04T03:11:30.994Z,0.00
2018-08-04T03:12:31.055Z,0.00
2018-08-04T03:13:31.116Z,0.00
2018-08-04T03:14:31.179Z,0.00
2018-08-04T03:15:31.240Z,0.00
2018-08-04T03:16:31.303Z,0.00
2018-08-04T03:17:31.364Z,0.00
2018-08-04T03:18:31.426Z,0.00
2018-08-04T03:19:31.488Z,0.00
2018-08-04T03:20:31.550Z,0.00
2018-08-04T03:21:31.612Z,0.00
2018-08-04T03:22:31.677Z,0.00
2018-08-04T03:23:31.735Z,0.00
2018-08-04T03:24:31.797Z,0.00
2018-08-04T03:25:31.860Z,0.00
2018-08-04T03:26:31.921Z,4.00
2018-08-04T03:27:31.981Z,4.00
2018-08-04T03:28:32.047Z,0.00
2018-08-04T03:29:32.107Z,0.00
2018-08-04T03:30:32.166Z,4.00
2018-08-04T03:31:32.380Z,4.00
2018-08-04T03:32:32.291Z,4.00
2018-08-04T03:33:32.352Z,8.00
2018-08-04T03:34:32.414Z,4.00
2018-08-04T03:35:32.476Z,4.00
2018-08-04T03:36:32.537Z,8.00
2018-08-04T03:37:32.598Z,12.00
2018-08-04T03:38:32.662Z,12.00
2018-08-04T03:39:32.722Z,12.00
2018-08-04T03:40:32.784Z,16.00
2018-08-04T03:41:32.845Z,16.00
2018-08-04T03:42:32.907Z,24.00
2018-08-04T03:43:32.971Z,24.00
2018-08-04T03:44:33.033Z,28.00
2018-08-04T03:45:33.093Z,32.00
2018-08-04T03:46:33.155Z,36.00
2018-08-04T03:47:33.217Z,40.00
2018-08-04T03:48:33.279Z,48.00
2018-08-04T03:49:33.340Z,52.00
2018-08-04T03:50:33.405Z,60.00
2018-08-04T03:51:33.465Z,68.00
2018-08-04T03:52:33.528Z,76.00
2018-08-04T03:53:33.588Z,88.00
2018-08-04T03:54:33.653Z,96.00
2018-08-04T03:55:33.713Z,108.00
2018-08-04T03:56:33.774Z,116.00
2018-08-04T03:57:33.835Z,132.00
2018-08-04T03:58:33.897Z,144.00
2018-08-04T03:59:33.975Z,160.00
2018-08-04T04:00:34.022Z,172.00
2018-08-04T04:01:34.084Z,192.00
2018-08-04T04:02:34.147Z,208.00
2018-08-04T04:03:34.208Z,228.00
2018-08-04T04:04:34.275Z,248.00
2018-08-04T04:05:34.332Z,272.00
2018-08-04T04:06:34.414Z,300.00
2018-08-04T04:07:34.456Z,324.00
2018-08-04T04:08:34.518Z,356.00
2018-08-04T04:09:34.583Z,384.00
2018-08-04T04:10:34.641Z,416.00
2018-08-04T04:11:34.703Z,448.00
2018-08-04T04:12:34.765Z,480.00
2018-08-04T04:13:34.826Z,512.00
2018-08-04T04:14:34.890Z,544.00
2018-08-04T04:15:34.950Z,576.00
2018-08-04T04:16:35.013Z,612.00
2018-08-04T04:17:35.074Z,648.00
2018-08-04T04:18:35.145Z,684.00
2018-08-04T04:19:35.198Z,724.00
2018-08-04T04:20:35.260Z,756.00
2018-08-04T04:21:35.324Z,784.00
2018-08-04T04:22:35.383Z,812.00
2018-08-04T04:23:35.446Z,836.00
2018-08-04T04:24:35.508Z,868.00
2018-08-04T04:25:35.570Z,900.00
2018-08-04T04:26:35.632Z,932.00
2018-08-04T04:27:35.695Z,968.00
2018-08-04T04:28:35.756Z,1008.00
2018-08-04T04:29:35.817Z,1044.00
2018-08-04T04:30:35.881Z,1080.00
2018-08-04T04:31:36.193Z,1116.00
2018-08-04T04:32:36.006Z,1156.00
2018-08-04T04:33:36.066Z,1192.00
2018-08-04T04:34:36.128Z,1232.00
2018-08-04T04:35:36.189Z,1272.00
2018-08-04T04:36:36.251Z,1316.00
2018-08-04T04:37:36.313Z,1352.00
2018-08-04T04:38:36.375Z,1396.00
2018-08-04T04:39:36.437Z,1432.00
2018-08-04T04:40:36.499Z,1468.00
2018-08-04T04:41:36.563Z,1504.00
2018-08-04T04:42:36.622Z,1548.00
2018-08-04T04:43:36.685Z,1588.00
2018-08-04T04:44:36.747Z,1628.00
2018-08-04T04:45:36.810Z,1668.00
2018-08-04T04:46:36.871Z,1712.00
2018-08-04T04:47:36.931Z,1752.00
2018-08-04T04:48:37.092Z,1792.00
2018-08-04T04:49:37.056Z,1828.00
2018-08-04T04:50:37.117Z,1868.00
2018-08-04T04:51:37.180Z,1900.00
2018-08-04T04:52:37.244Z,1940.00
2018-08-04T04:53:37.304Z,1976.00
2018-08-04T04:54:37.365Z,2012.00
2018-08-04T04:55:37.428Z,2052.00
2018-08-04T04:56:37.489Z,2088.00
2018-08-04T04:57:37.551Z,2136.00
2018-08-04T04:58:37.613Z,2180.00
2018-08-04T04:59:37.676Z,2228.00
2018-08-04T05:00:37.738Z,2272.00
2018-08-04T05:01:37.799Z,2324.00
2018-08-04T05:02:37.862Z,2384.00
2018-08-04T05:03:37.926Z,2448.00
2018-08-04T05:04:39.165Z,2536.00
2018-08-04T05:05:38.048Z,2632.00
2018-08-04T05:06:38.108Z,2740.00
2018-08-04T05:07:38.171Z,2864.00
2018-08-04T05:08:38.273Z,3020.00
2018-08-04T05:09:38.296Z,3176.00
2018-08-04T05:10:38.356Z,3292.00
2018-08-04T05:11:38.669Z,3348.00
2018-08-04T05:12:38.481Z,3348.00
2018-08-04T05:13:38.542Z,3300.00
2018-08-04T05:14:38.605Z,3244.00
2018-08-04T05:15:38.666Z,3204.00
2018-08-04T05:16:38.730Z,3216.00
2018-08-04T05:17:38.790Z,3268.00
2018-08-04T05:18:38.852Z,3296.00
2018-08-04T05:19:38.914Z,3320.00
2018-08-04T05:20:38.976Z,3332.00
2018-08-04T05:21:39.057Z,3304.00
2018-08-04T05:22:39.100Z,3252.00
2018-08-04T05:23:39.163Z,3220.00
2018-08-04T05:24:39.225Z,3188.00
2018-08-04T05:25:39.288Z,3216.00
2018-08-04T05:26:39.352Z,3268.00
2018-08-04T05:27:39.411Z,3328.00
2018-08-04T05:28:39.474Z,3396.00
2018-08-04T05:29:39.538Z,3492.00
2018-08-04T05:30:39.599Z,3568.00
2018-08-04T05:31:39.661Z,3592.00
2018-08-04T05:32:39.723Z,3604.00
2018-08-04T05:33:39.784Z,3632.00
2018-08-04T05:34:39.848Z,3732.00
2018-08-04T05:35:39.912Z,3840.00
2018-08-04T05:36:39.972Z,3916.00
2018-08-04T05:37:40.035Z,3972.00
2018-08-04T05:38:40.096Z,4024.00
2018-08-04T05:39:40.158Z,4044.00
2018-08-04T05:40:40.221Z,4032.00
2018-08-04T05:41:40.282Z,4008.00
2018-08-04T05:42:40.349Z,4008.00
2018-08-04T05:43:40.464Z,4032.00
2018-08-04T05:44:40.470Z,4124.00
2018-08-04T05:45:40.533Z,4220.00
2018-08-04T05:46:40.595Z,4328.00
2018-08-04T05:47:40.658Z,4452.00
2018-08-04T05:48:40.719Z,4568.00
2018-08-04T05:49:40.782Z,4736.00
2018-08-04T05:50:40.844Z,4956.00
2018-08-04T05:51:40.906Z,5220.00
2018-08-04T05:52:41.221Z,5468.00
2018-08-04T05:53:41.031Z,5644.00
2018-08-04T05:54:41.095Z,5768.00
2018-08-04T05:55:41.156Z,5848.00
2018-08-04T05:56:41.219Z,5884.00
2018-08-04T05:57:41.280Z,5896.00
2018-08-04T05:58:41.348Z,5944.00
2018-08-04T05:59:41.408Z,6048.00
2018-08-04T06:00:41.476Z,6168.00
2018-08-04T06:01:41.565Z,6264.00
2018-08-04T06:02:41.595Z,6364.00
2018-08-04T06:03:41.659Z,6452.00
2018-08-04T06:04:41.724Z,6500.00
2018-08-04T06:05:41.784Z,6532.00
2018-08-04T06:06:41.848Z,6708.00
2018-08-04T06:07:41.910Z,6780.00
2018-08-04T06:08:41.973Z,6800.00
2018-08-04T06:09:42.035Z,6888.00
2018-08-04T06:10:42.098Z,6984.00
2018-08-04T06:11:42.162Z,7096.00
2018-08-04T06:12:42.225Z,7164.00
2018-08-04T06:13:42.288Z,7248.00
2018-08-04T06:14:42.350Z,7240.00
2018-08-04T06:15:42.414Z,7176.00
2018-08-04T06:16:42.477Z,7052.00
2018-08-04T06:17:42.543Z,6884.00
2018-08-04T06:18:42.604Z,6744.00
2018-08-04T06:19:42.667Z,6624.00
2018-08-04T06:20:42.739Z,6492.00
2018-08-04T06:21:42.796Z,6344.00
2018-08-04T06:22:42.857Z,6272.00
2018-08-04T06:23:42.922Z,6184.00
2018-08-04T06:24:42.991Z,6036.00
2018-08-04T06:25:43.055Z,5876.00
2018-08-04T06:26:43.112Z,5732.00
2018-08-04T06:27:43.326Z,5648.00
2018-08-04T06:28:43.239Z,5632.00
2018-08-04T06:29:43.302Z,5632.00
2018-08-04T06:30:43.367Z,5652.00
2018-08-04T06:31:43.430Z,5688.00
2018-08-04T06:32:43.746Z,5736.00
2018-08-04T06:33:43.572Z,5788.00
2018-08-04T06:34:43.622Z,5848.00
2018-08-04T06:35:43.687Z,5904.00
2018-08-04T06:36:43.750Z,5964.00
2018-08-04T06:37:43.812Z,6024.00
2018-08-04T06:38:43.878Z,6096.00
2018-08-04T06:39:43.942Z,6180.00
2018-08-04T06:40:44.005Z,6252.00
2018-08-04T06:41:44.146Z,6312.00
2018-08-04T06:42:44.132Z,6368.00
2018-08-04T06:43:44.216Z,6412.00
2018-08-04T06:44:44.261Z,6456.00
2018-08-04T06:45:44.329Z,6476.00
2018-08-04T06:46:44.388Z,6508.00
2018-08-04T06:47:44.703Z,6564.00
2018-08-04T06:48:44.518Z,6652.00
2018-08-04T06:49:44.580Z,6748.00
2018-08-04T06:50:44.645Z,6852.00
2018-08-04T06:51:44.710Z,6956.00
2018-08-04T06:52:45.077Z,7044.00
2018-08-04T06:53:44.837Z,7100.00
2018-08-04T06:54:44.901Z,7164.00
2018-08-04T06:55:44.965Z,7212.00
2018-08-04T06:56:45.031Z,7256.00
2018-08-04T06:57:45.097Z,7268.00
2018-08-04T06:58:45.159Z,7252.00
2018-08-04T06:59:45.223Z,7216.00
2018-08-04T07:00:45.287Z,7212.00
2018-08-04T07:01:45.353Z,7224.00
2018-08-04T07:02:45.416Z,7284.00
2018-08-04T07:03:45.481Z,7384.00
2018-08-04T07:04:45.546Z,7536.00
2018-08-04T07:05:45.609Z,7696.00
2018-08-04T07:06:45.677Z,7820.00
2018-08-04T07:07:45.739Z,7880.00
2018-08-04T07:08:45.804Z,7864.00
2018-08-04T07:09:46.436Z,7800.00
2018-08-04T07:10:45.934Z,7732.00
2018-08-04T07:11:45.999Z,7724.00
2018-08-04T07:12:46.063Z,7768.00
2018-08-04T07:13:46.138Z,7864.00
2018-08-04T07:14:46.192Z,8032.00
2018-08-04T07:16:28.700Z,8468.00
2018-08-04T07:17:28.765Z,8808.00
2018-08-04T07:18:28.830Z,9208.00
2018-08-04T07:19:28.896Z,9648.00
2018-08-04T07:20:28.961Z,10128.00
2018-08-04T07:21:29.451Z,10632.00
2018-08-04T07:22:29.089Z,11232.00
2018-08-04T07:23:29.156Z,11920.00
2018-08-04T07:24:29.220Z,12648.00
2018-08-04T07:25:29.284Z,13336.00
2018-08-04T07:26:29.353Z,13952.00
2018-08-04T07:27:29.417Z,14560.00
2018-08-04T07:28:29.481Z,15220.00
2018-08-04T07:29:29.547Z,15864.00
2018-08-04T07:30:29.614Z,16244.00
2018-08-04T07:31:29.679Z,16352.00
2018-08-04T07:32:29.744Z,16528.00
2018-08-04T07:33:29.809Z,16972.00
2018-08-04T07:34:29.875Z,17416.00
2018-08-04T07:35:29.944Z,18176.00
2018-08-04T07:36:30.007Z,18784.00
2018-08-04T07:37:30.073Z,19456.00
2018-08-04T07:38:30.141Z,19552.00
2018-08-04T07:39:30.728Z,19424.00
2018-08-04T07:40:30.897Z,19136.00
2018-08-04T07:41:31.134Z,18240.00
2018-08-04T07:42:31.219Z,17116.00
2018-08-04T07:43:30.473Z,16232.00
2018-08-04T07:44:30.541Z,15360.00
2018-08-04T07:45:30.607Z,14708.00
2018-08-04T07:46:30.675Z,14500.00
2018-08-04T07:47:30.759Z,14516.00
2018-08-04T07:48:30.809Z,14564.00
2018-08-04T07:49:30.875Z,14972.00
2018-08-04T07:50:30.943Z,15628.00
2018-08-04T07:51:31.011Z,16184.00
2018-08-04T07:52:31.077Z,16236.00
2018-08-04T07:53:31.145Z,16292.00
2018-08-04T07:54:31.214Z,16368.00
2018-08-04T07:55:31.280Z,16400.00
2018-08-04T07:56:31.346Z,16056.00
2018-08-04T07:57:31.415Z,15576.00
2018-08-04T07:58:31.482Z,14980.00
2018-08-04T07:59:31.609Z,14432.00
2018-08-04T08:00:31.621Z,13804.00
2018-08-04T08:01:31.684Z,13252.00
2018-08-04T08:02:31.752Z,12784.00
2018-08-04T08:03:31.821Z,12304.00
2018-08-04T08:04:31.891Z,11708.00
2018-08-04T08:05:31.957Z,11020.00
2018-08-04T08:06:32.024Z,10264.00
2018-08-04T08:07:32.092Z,9516.00
2018-08-04T08:08:32.160Z,8876.00
2018-08-04T08:09:32.839Z,8488.00
2018-08-04T08:10:32.353Z,8228.00
2018-08-04T08:11:32.364Z,7964.00
2018-08-04T08:12:32.429Z,7664.00
2018-08-04T08:13:32.497Z,7424.00
2018-08-04T08:14:32.566Z,7436.00
2018-08-04T08:15:32.634Z,7812.00
2018-08-04T08:16:32.700Z,8592.00
2018-08-04T08:17:32.767Z,9676.00
2018-08-04T08:18:32.837Z,10860.00
2018-08-04T08:19:32.978Z,11732.00
2018-08-04T08:20:33.504Z,12252.00
2018-08-04T08:21:33.037Z,12772.00
2018-08-04T08:22:33.105Z,13156.00
2018-08-04T08:23:33.173Z,13528.00
2018-08-04T08:24:33.240Z,14048.00
2018-08-04T08:25:33.308Z,14632.00
2018-08-04T08:26:33.376Z,15076.00
2018-08-04T08:27:33.444Z,15224.00
2018-08-04T08:28:33.659Z,15028.00
2018-08-04T08:29:33.577Z,14728.00
2018-08-04T08:30:33.645Z,14368.00
2018-08-04T08:31:33.768Z,13700.00
2018-08-04T08:32:33.784Z,13232.00
2018-08-04T08:33:33.849Z,12408.00
2018-08-04T08:34:33.915Z,11608.00
2018-08-04T08:35:33.983Z,11196.00
2018-08-04T08:36:34.636Z,11024.00
2018-08-04T08:37:34.668Z,11700.00
2018-08-04T08:38:34.188Z,12380.00
2018-08-04T08:39:34.256Z,13272.00
2018-08-04T08:40:34.322Z,13792.00
2018-08-04T08:41:34.391Z,14132.00
2018-08-04T08:42:34.458Z,15216.00
2018-08-04T08:43:34.526Z,16076.00
2018-08-04T08:44:34.593Z,16816.00
2018-08-04T08:45:34.661Z,17628.00
2018-08-04T08:46:34.731Z,18208.00
2018-08-04T08:47:34.801Z,18976.00
2018-08-04T08:48:34.866Z,19488.00
2018-08-04T08:49:34.937Z,20096.00
2018-08-04T08:50:35.004Z,20224.00
2018-08-04T08:51:35.072Z,19680.00
2018-08-04T08:52:35.140Z,19168.00
2018-08-04T08:53:35.318Z,19680.00
2018-08-04T08:54:35.277Z,20288.00
2018-08-04T08:55:35.346Z,20832.00
2018-08-04T08:56:35.415Z,21472.00
2018-08-04T08:57:35.485Z,22720.00
2018-08-04T08:58:35.552Z,23360.00
2018-08-04T08:59:35.621Z,23904.00
2018-08-04T09:00:35.689Z,23200.00
2018-08-04T09:01:35.759Z,23040.00
2018-08-04T09:02:35.830Z,22944.00
2018-08-04T09:03:35.897Z,22944.00
2018-08-04T09:04:35.966Z,22656.00
2018-08-04T09:05:36.037Z,22048.00
2018-08-04T09:06:36.105Z,21280.00
2018-08-04T09:07:36.176Z,20480.00
2018-08-04T09:08:36.249Z,20128.00
2018-08-04T09:09:36.314Z,20288.00
2018-08-04T09:10:36.387Z,20576.00
2018-08-04T09:11:36.454Z,19840.00
2018-08-04T09:12:36.524Z,19296.00
2018-08-04T09:13:36.593Z,18880.00
2018-08-04T09:14:36.666Z,18464.00
2018-08-04T09:15:36.768Z,18496.00
2018-08-04T09:16:36.802Z,18136.00
2018-08-04T09:17:36.872Z,18272.00
2018-08-04T09:18:36.943Z,18816.00
2018-08-04T09:19:37.014Z,18752.00
2018-08-04T09:20:37.081Z,17888.00
2018-08-04T09:21:37.157Z,17036.00
2018-08-04T09:22:37.222Z,16884.00
2018-08-04T09:23:37.294Z,17444.00
2018-08-04T09:24:37.363Z,17512.00
2018-08-04T09:25:50.170Z,18160.00
2018-08-04T09:26:37.501Z,19104.00
2018-08-04T09:27:37.571Z,19552.00
2018-08-04T09:28:37.639Z,19328.00
2018-08-04T09:29:37.710Z,18784.00
2018-08-04T09:30:37.779Z,18368.00
2018-08-04T09:31:37.849Z,18368.00
2018-08-04T09:32:37.918Z,18656.00
2018-08-04T09:33:37.988Z,19168.00
2018-08-04T09:34:38.062Z,20000.00
2018-08-04T09:35:38.129Z,20704.00
2018-08-04T09:36:38.199Z,21216.00
2018-08-04T09:37:38.268Z,21536.00
2018-08-04T09:38:38.337Z,21536.00
2018-08-04T09:39:38.409Z,21408.00
2018-08-04T09:40:38.477Z,21344.00
2018-08-04T09:41:38.549Z,22048.00
2018-08-04T09:42:38.619Z,22080.00
2018-08-04T09:43:38.688Z,21760.00
2018-08-04T09:44:38.758Z,21600.00
2018-08-04T09:45:38.828Z,21408.00
2018-08-04T09:46:38.899Z,20832.00
2018-08-04T09:47:38.970Z,20064.00
2018-08-04T09:48:39.039Z,19040.00
2018-08-04T09:49:39.108Z,18816.00
2018-08-04T09:50:39.182Z,19552.00
2018-08-04T09:51:39.252Z,18432.00
2018-08-04T09:52:39.343Z,17808.00
2018-08-04T09:53:39.392Z,17004.00
2018-08-04T09:54:39.462Z,16432.00
2018-08-04T09:55:39.533Z,15956.00
2018-08-04T09:56:39.603Z,15592.00
2018-08-04T09:57:39.678Z,15340.00
2018-08-04T09:58:39.750Z,15704.00
2018-08-04T09:59:39.871Z,15292.00
2018-08-04T10:00:39.885Z,14236.00
2018-08-04T10:01:39.955Z,15220.00
2018-08-04T10:02:40.026Z,15288.00
2018-08-04T10:03:40.098Z,14308.00
2018-08-04T10:04:40.167Z,12992.00
2018-08-04T10:05:40.237Z,13604.00
2018-08-04T10:06:40.311Z,11732.00
2018-08-04T10:07:40.378Z,10396.00
2018-08-04T10:08:40.449Z,10660.00
2018-08-04T10:09:40.518Z,10436.00
2018-08-04T10:10:40.588Z,11024.00
2018-08-04T10:11:40.658Z,12356.00
2018-08-04T10:12:40.727Z,13160.00
2018-08-04T10:13:41.048Z,13740.00
2018-08-04T10:14:40.868Z,14376.00
2018-08-04T10:15:40.939Z,15128.00
2018-08-04T10:16:41.008Z,15328.00
2018-08-04T10:17:41.082Z,15484.00
2018-08-04T10:18:41.148Z,15592.00
2018-08-04T10:19:41.222Z,15732.00
2018-08-04T10:20:41.312Z,15912.00
2018-08-04T10:21:41.358Z,16252.00
2018-08-04T10:22:41.428Z,17184.00
2018-08-04T10:23:41.499Z,29184.00
2018-08-04T10:24:41.569Z,47712.00
2018-08-04T10:25:41.640Z,60288.00
2018-08-04T10:26:41.711Z,61408.00
2018-08-04T10:27:41.788Z,62304.00
2018-08-04T10:28:41.853Z,62816.00
2018-08-04T10:29:41.924Z,63776.00
2018-08-04T10:30:42.011Z,63488.00
2018-08-04T10:31:42.069Z,64864.00
2018-08-04T10:32:42.244Z,65184.00
2018-08-04T10:33:42.213Z,65088.00
2018-08-04T10:34:42.285Z,64992.00
2018-08-04T10:35:42.419Z,65728.00
2018-08-04T10:36:42.430Z,66208.00
2018-08-04T10:37:42.504Z,66400.00
2018-08-04T10:38:42.583Z,67168.00
2018-08-04T10:39:43.285Z,67936.00
2018-08-04T10:40:42.728Z,67872.00
2018-08-04T10:41:42.800Z,68352.00
2018-08-04T10:42:42.874Z,68288.00
2018-08-04T10:43:42.949Z,68352.00
2018-08-04T10:44:43.022Z,68576.00
2018-08-04T10:45:43.098Z,68160.00
2018-08-04T10:46:43.173Z,68384.00
2018-08-04T10:47:43.249Z,68896.00
2018-08-04T10:48:43.321Z,68128.00
2018-08-04T10:49:43.397Z,68352.00
2018-08-04T10:50:43.473Z,67392.00
2018-08-04T10:51:43.549Z,66752.00
2018-08-04T10:52:43.622Z,65728.00
2018-08-04T10:53:43.698Z,65920.00
2018-08-04T10:54:43.775Z,66304.00
2018-08-04T10:55:43.852Z,65952.00
2018-08-04T10:56:43.927Z,65216.00
2018-08-04T10:57:44.002Z,65184.00
2018-08-04T10:58:44.081Z,66112.00
2018-08-04T10:59:44.155Z,65472.00
2018-08-04T11:00:44.230Z,64928.00
2018-08-04T11:01:44.306Z,64928.00
2018-08-04T11:02:44.386Z,63904.00
2018-08-04T11:03:44.468Z,63616.00
2018-08-04T11:04:44.536Z,63392.00
2018-08-04T11:05:44.611Z,63552.00
2018-08-04T11:06:44.688Z,62496.00
2018-08-04T11:07:44.764Z,62080.00
2018-08-04T11:08:44.841Z,61760.00
2018-08-04T11:09:44.917Z,60864.00
2018-08-04T11:10:44.996Z,60960.00
2018-08-04T11:11:45.076Z,60480.00
2018-08-04T11:12:45.148Z,60032.00
2018-08-04T11:13:45.225Z,59072.00
2018-08-04T11:14:45.301Z,58656.00
2018-08-04T11:15:45.381Z,57344.00
2018-08-04T11:16:45.455Z,56736.00
2018-08-04T11:17:45.534Z,56096.00
2018-08-04T11:18:45.610Z,55936.00
2018-08-04T11:19:45.687Z,55232.00
2018-08-04T11:20:45.763Z,54784.00
2018-08-04T11:21:45.841Z,53856.00
2018-08-04T11:22:45.919Z,52608.00
2018-08-04T11:23:45.995Z,52256.00
2018-08-04T11:24:46.073Z,52000.00
2018-08-04T11:25:46.150Z,51232.00
2018-08-04T11:26:46.227Z,50816.00
2018-08-04T11:27:46.304Z,50144.00
2018-08-04T11:28:46.383Z,50208.00
2018-08-04T11:29:46.459Z,48960.00
2018-08-04T11:30:46.580Z,48928.00
2018-08-04T11:31:46.614Z,48000.00
2018-08-04T11:32:46.690Z,47584.00
2018-08-04T11:33:46.768Z,47168.00
2018-08-04T11:34:46.847Z,46368.00
2018-08-04T11:35:46.924Z,46016.00
2018-08-04T11:36:47.000Z,45408.00
2018-08-04T11:37:47.110Z,44672.00
2018-08-04T11:38:47.155Z,44352.00
2018-08-04T11:39:48.035Z,43680.00
2018-08-04T11:40:47.311Z,43232.00
2018-08-04T11:41:47.387Z,43136.00
2018-08-04T11:42:47.465Z,42784.00
2018-08-04T11:43:47.543Z,42720.00
2018-08-04T11:44:47.620Z,42496.00
2018-08-04T11:45:47.696Z,42112.00
2018-08-04T11:46:47.775Z,41760.00
2018-08-04T11:47:47.853Z,42048.00
2018-08-04T11:48:47.928Z,42112.00
2018-08-04T11:49:48.006Z,41984.00
2018-08-04T11:50:48.086Z,41952.00
2018-08-04T11:51:48.161Z,41792.00
2018-08-04T11:52:48.237Z,42144.00
2018-08-04T11:53:48.318Z,41760.00
2018-08-04T11:54:48.440Z,41472.00
2018-08-04T11:55:48.470Z,41536.00
2018-08-04T11:56:48.549Z,41248.00
2018-08-04T11:57:48.625Z,40992.00
2018-08-04T11:58:48.702Z,41088.00
2018-08-04T11:59:48.780Z,41504.00
2018-08-04T12:00:48.857Z,41664.00
2018-08-04T12:01:48.966Z,41696.00
2018-08-04T12:02:49.013Z,42688.00
2018-08-04T12:03:49.090Z,43072.00
2018-08-04T12:04:49.417Z,43424.00
2018-08-04T12:05:49.247Z,43872.00
2018-08-04T12:06:49.327Z,44224.00
2018-08-04T12:07:49.401Z,45344.00
2018-08-04T12:08:49.476Z,45728.00
2018-08-04T12:09:49.556Z,47072.00
2018-08-04T12:10:49.643Z,48576.00
2018-08-04T12:11:49.711Z,50816.00
2018-08-04T12:12:49.787Z,53248.00
2018-08-04T12:13:49.864Z,58176.00
2018-08-04T12:14:49.944Z,62400.00
2018-08-04T12:15:50.021Z,64640.00
2018-08-04T12:16:50.096Z,69376.00
2018-08-04T12:17:50.175Z,74784.00
2018-08-04T12:18:50.252Z,76032.00
2018-08-04T12:19:50.337Z,83264.00